Time;durP1;ratioP1;P1;durP2;ratioP2;P2;SDS_P1;SDS_P2;PMS_P1;PMS_P2;Temp;Humidity;BMP_temperature;BMP_pressure;BME280_temperature;BME280_humidity;BME280_pressure;Samples;Min_cycle;Max_cycle;Signal;HPM_P1;HPM_P2
2021/08/15 00:01:08;;;;;;;10.10;7.13;;;;;;;20.02;76.60;98061.97;5029600;28;20037;-61
2021/08/15 00:03:33;;;;;;;9.40;7.20;;;;;;;19.49;78.07;98067.78;5030436;28;20056;-62
2021/08/15 00:05:58;;;;;;;10.15;6.68;;;;;;;19.80;76.89;98060.19;5031105;28;20457;-62
2021/08/15 00:08:23;;;;;;;9.70;6.32;;;;;;;19.79;76.87;98059.31;5031440;28;20029;-60
2021/08/15 00:10:49;;;;;;;16.13;7.28;;;;;;;19.63;77.42;98066.75;5031936;28;20047;-60
2021/08/15 00:13:14;;;;;;;10.30;7.07;;;;;;;19.64;78.76;98065.78;5029310;28;20111;-62
2021/08/15 00:15:39;;;;;;;11.75;7.40;;;;;;;19.45;78.97;98061.06;5030212;28;20640;-62
2021/08/15 00:18:05;;;;;;;10.63;7.03;;;;;;;19.67;78.09;98060.25;5028100;28;20029;-62
2021/08/15 00:20:30;;;;;;;12.63;7.00;;;;;;;19.38;79.11;98060.69;5029907;28;20791;-61
2021/08/15 00:22:56;;;;;;;8.85;6.60;;;;;;;19.25;79.71;98052.81;5029027;28;20040;-61
2021/08/15 00:25:21;;;;;;;9.20;6.70;;;;;;;19.30;80.14;98054.28;5029020;28;20037;-62
2021/08/15 00:27:47;;;;;;;13.02;7.07;;;;;;;19.35;79.91;98058.25;5025029;28;20036;-60
2021/08/15 00:30:14;;;;;;;9.10;6.25;;;;;;;19.37;79.89;98055.50;5029647;28;20025;-60
2021/08/15 00:32:41;;;;;;;12.18;6.80;;;;;;;19.12;81.01;98049.44;5031297;28;20029;-61
2021/08/15 00:35:07;;;;;;;10.55;7.03;;;;;;;19.32;80.21;98047.94;5027541;28;20029;-60
2021/08/15 00:37:32;;;;;;;12.43;7.13;;;;;;;19.16;80.43;98039.47;5028198;28;20030;-63
2021/08/15 00:39:58;;;;;;;11.18;7.30;;;;;;;18.93;81.53;98039.41;5038177;28;20056;-62
2021/08/15 00:42:23;;;;;;;10.95;7.25;;;;;;;18.98;81.84;98037.25;5027508;28;20087;-61
2021/08/15 00:44:49;;;;;;;9.23;6.70;;;;;;;19.11;81.18;98041.63;5029509;28;20083;-62
2021/08/15 00:47:14;;;;;;;11.40;7.63;;;;;;;18.85;82.31;98039.13;5027966;28;20060;-62
2021/08/15 00:49:40;;;;;;;10.70;7.15;;;;;;;18.82;82.84;98040.19;5029332;28;20059;-60
2021/08/15 00:52:05;;;;;;;12.25;7.15;;;;;;;18.87;82.56;98040.69;5029587;28;20444;-60
2021/08/15 00:54:31;;;;;;;14.48;7.25;;;;;;;19.03;82.00;98034.28;5029763;28;20044;-60
2021/08/15 00:56:57;;;;;;;10.25;7.28;;;;;;;19.01;82.16;98026.44;5027527;28;20045;-60
2021/08/15 00:59:22;;;;;;;12.85;7.38;;;;;;;18.72;82.91;98031.22;5028821;28;20108;-62
2021/08/15 01:01:50;;;;;;;14.43;7.82;;;;;;;18.59;84.24;98023.34;5027941;28;20680;-60
2021/08/15 01:04:16;;;;;;;11.30;7.45;;;;;;;18.50;84.10;98018.75;5027417;28;20036;-62
2021/08/15 01:06:41;;;;;;;12.77;7.25;;;;;;;18.76;83.07;98016.00;5026551;28;20033;-60
2021/08/15 01:09:07;;;;;;;9.68;6.93;;;;;;;18.72;82.84;98030.38;5028590;28;20021;-61
2021/08/15 01:11:34;;;;;;;9.45;7.13;;;;;;;18.72;83.11;98015.38;5028320;28;20046;-61
2021/08/15 01:14:05;;;;;;;12.35;7.38;;;;;;;18.60;83.55;98013.63;5030168;28;20540;-61
2021/08/15 01:16:32;;;;;;;11.47;7.13;;;;;;;18.50;84.35;98016.09;5026974;28;20059;-61
2021/08/15 01:18:57;;;;;;;14.98;7.53;;;;;;;18.51;84.34;98017.81;5029747;28;20029;-61
2021/08/15 01:21:23;;;;;;;10.85;6.93;;;;;;;18.83;82.58;98009.31;5027968;28;20469;-61
2021/08/15 01:23:48;;;;;;;14.10;7.53;;;;;;;18.40;84.32;98015.13;5030056;28;20178;-61
2021/08/15 01:26:16;;;;;;;14.98;7.38;;;;;;;18.42;84.61;98019.31;5027451;28;20127;-61
2021/08/15 01:28:42;;;;;;;12.45;7.50;;;;;;;18.52;84.52;98014.19;5028244;28;20022;-62
2021/08/15 01:31:09;;;;;;;15.85;7.30;;;;;;;18.36;85.02;98016.25;5027214;28;20061;-61
2021/08/15 01:33:39;;;;;;;8.98;6.32;;;;;;;18.58;83.96;98013.78;5028400;28;20033;-62
2021/08/15 01:36:05;;;;;;;8.85;6.93;;;;;;;18.45;84.32;98018.25;5028539;28;20072;-61
2021/08/15 01:38:33;;;;;;;19.63;7.40;;;;;;;18.35;84.69;98012.78;5029213;28;20459;-61
2021/08/15 01:40:58;;;;;;;16.58;7.45;;;;;;;18.25;85.26;98017.91;5029095;28;20048;-61
2021/08/15 01:43:26;;;;;;;12.13;7.10;;;;;;;18.30;84.65;98010.47;5030195;28;20403;-62
2021/08/15 01:45:52;;;;;;;13.23;7.30;;;;;;;18.21;85.29;98015.59;5029007;28;20045;-62
2021/08/15 01:48:18;;;;;;;9.82;7.05;;;;;;;18.34;85.65;98011.09;5029599;28;20480;-61
2021/08/15 01:50:44;;;;;;;12.98;8.23;;;;;;;18.03;86.23;98010.69;5029779;28;20098;-63
2021/08/15 01:53:11;;;;;;;13.88;7.47;;;;;;;17.94;87.01;98008.69;5029906;28;20022;-60
2021/08/15 01:55:39;;;;;;;9.27;6.45;;;;;;;18.42;85.25;98014.03;5027995;28;20043;-61
2021/08/15 01:58:04;;;;;;;12.70;7.82;;;;;;;18.08;85.79;98005.06;5029371;28;20104;-60
2021/08/15 02:00:30;;;;;;;10.40;7.30;;;;;;;17.88;87.22;98009.13;5029091;28;20132;-61
2021/08/15 02:02:55;;;;;;;10.43;7.32;;;;;;;18.03;86.27;98010.69;5028823;28;20117;-60
2021/08/15 02:05:21;;;;;;;13.30;7.78;;;;;;;17.61;88.67;98002.16;5028505;28;21058;-61
2021/08/15 02:07:47;;;;;;;10.55;7.47;;;;;;;17.74;88.23;97999.53;5028918;28;20087;-60
2021/08/15 02:10:14;;;;;;;10.13;7.28;;;;;;;17.68;88.87;98003.44;5032598;28;20023;-60
2021/08/15 02:12:39;;;;;;;11.80;7.30;;;;;;;17.69;88.49;98005.09;5032068;28;20087;-60
2021/08/15 02:15:05;;;;;;;11.75;8.00;;;;;;;17.45;89.47;98007.66;5029489;28;20331;-60
2021/08/15 02:17:31;;;;;;;9.82;7.63;;;;;;;17.62;88.66;98013.56;5024699;28;20033;-60
2021/08/15 02:19:56;;;;;;;10.18;7.18;;;;;;;17.69;89.68;98004.25;5028793;28;20033;-61
2021/08/15 02:22:22;;;;;;;12.23;7.45;;;;;;;17.56;88.58;98006.06;5028496;28;20065;-60
2021/08/15 02:24:47;;;;;;;11.63;8.00;;;;;;;17.12;90.28;98006.38;5031087;28;20025;-61
2021/08/15 02:27:12;;;;;;;11.73;7.32;;;;;;;17.25;89.68;97998.47;5029752;28;20033;-60
2021/08/15 02:29:38;;;;;;;11.10;7.32;;;;;;;17.28;89.30;98000.06;5030220;28;20029;-61
2021/08/15 02:32:03;;;;;;;11.27;7.60;;;;;;;17.00;91.69;98001.94;5026812;28;20058;-60
2021/08/15 02:34:29;;;;;;;14.38;7.50;;;;;;;17.32;90.03;97996.28;5030080;28;20029;-62
2021/08/15 02:36:54;;;;;;;10.57;7.57;;;;;;;17.45;89.33;97999.75;5029061;28;20139;-60
2021/08/15 02:39:19;;;;;;;13.57;7.47;;;;;;;17.21;91.12;97993.53;5028857;28;20255;-61
2021/08/15 02:41:45;;;;;;;12.20;7.70;;;;;;;17.17;91.11;97992.03;5028150;28;20072;-60
2021/08/15 02:44:10;;;;;;;12.02;6.93;;;;;;;17.45;90.81;97994.47;5027597;28;20037;-60
2021/08/15 02:46:35;;;;;;;12.27;6.78;;;;;;;17.70;89.01;97996.25;5027706;28;20514;-62
2021/08/15 02:49:01;;;;;;;11.23;7.28;;;;;;;17.34;89.83;97991.72;5029430;28;20836;-62
2021/08/15 02:51:26;;;;;;;11.80;6.93;;;;;;;17.47;89.34;97995.19;5026241;28;20424;-59
2021/08/15 02:53:53;;;;;;;10.70;7.25;;;;;;;17.31;89.64;97991.94;5027824;28;20095;-63
2021/08/15 02:56:19;;;;;;;10.55;7.75;;;;;;;17.60;87.87;97994.34;5026010;28;20534;-63
2021/08/15 02:58:44;;;;;;;15.65;7.22;;;;;;;17.28;89.74;97984.25;5027010;28;20025;-63
2021/08/15 03:01:10;;;;;;;12.52;6.90;;;;;;;17.59;88.71;97993.53;5028542;28;20047;-63
2021/08/15 03:03:37;;;;;;;11.75;7.57;;;;;;;16.95;91.19;97988.22;5028228;28;20040;-60
2021/08/15 03:06:02;;;;;;;8.07;6.35;;;;;;;17.54;89.33;97996.47;5029834;28;20047;-62
2021/08/15 03:08:27;;;;;;;11.27;7.40;;;;;;;16.99;91.19;97988.88;5029704;28;20025;-59
2021/08/15 03:10:53;;;;;;;12.43;6.97;;;;;;;17.26;89.48;97988.75;5030469;28;20060;-62
2021/08/15 03:13:18;;;;;;;12.27;7.63;;;;;;;16.93;91.27;97995.41;5030052;28;20025;-59
2021/08/15 03:15:43;;;;;;;10.38;7.20;;;;;;;16.95;91.45;97989.06;5030774;28;20037;-59
2021/08/15 03:18:12;;;;;;;12.73;7.38;;;;;;;16.89;91.60;97993.88;5029544;28;20112;-60
2021/08/15 03:20:37;;;;;;;10.25;6.47;;;;;;;17.31;90.15;97989.31;5029203;28;20040;-59
2021/08/15 03:23:03;;;;;;;10.55;7.55;;;;;;;16.91;91.41;97992.03;5031087;28;20025;-60
2021/08/15 03:25:28;;;;;;;12.35;6.68;;;;;;;17.40;89.23;97993.94;5032075;28;20046;-61
2021/08/15 03:27:53;;;;;;;11.90;6.68;;;;;;;17.30;89.00;97988.47;5031805;28;20033;-60
2021/08/15 03:30:19;;;;;;;11.48;7.28;;;;;;;17.12;89.68;97995.00;5030500;28;20049;-61
2021/08/15 03:32:44;;;;;;;13.57;7.15;;;;;;;16.86;91.45;97980.94;5028203;28;20457;-60
2021/08/15 03:35:10;;;;;;;12.23;6.70;;;;;;;17.01;90.85;97979.91;5032817;28;20032;-62
2021/08/15 03:37:35;;;;;;;11.27;6.20;;;;;;;17.07;90.80;97982.13;5030732;28;20922;-62
2021/08/15 03:40:00;;;;;;;11.45;7.03;;;;;;;16.94;90.41;97971.56;5029385;28;20033;-60
2021/08/15 03:42:26;;;;;;;12.75;7.35;;;;;;;16.89;90.31;97980.72;5029257;28;20036;-61
2021/08/15 03:44:51;;;;;;;9.68;6.20;;;;;;;17.03;90.60;97974.53;5029054;28;20060;-61
2021/08/15 03:47:16;;;;;;;9.45;6.10;;;;;;;16.98;90.58;97976.63;5029838;28;20042;-61
2021/08/15 03:49:42;;;;;;;11.88;7.25;;;;;;;16.82;90.75;97971.50;5029706;28;20029;-62
2021/08/15 03:52:07;;;;;;;9.32;6.32;;;;;;;16.89;90.55;97983.34;5030632;28;20029;-60
2021/08/15 03:54:32;;;;;;;9.65;6.53;;;;;;;16.91;90.37;97977.06;5031876;28;20021;-61
2021/08/15 03:56:58;;;;;;;11.20;7.28;;;;;;;16.52;92.05;97972.59;5027204;28;20387;-60
2021/08/15 03:59:23;;;;;;;8.95;6.53;;;;;;;16.73;91.17;97968.56;5028525;28;20029;-62
2021/08/15 04:01:48;;;;;;;11.05;6.82;;;;;;;16.90;90.22;97966.63;5031046;28;20163;-61
2021/08/15 04:04:15;;;;;;;10.38;7.00;;;;;;;16.66;91.14;97962.00;5029492;28;20025;-62
2021/08/15 04:06:40;;;;;;;12.23;6.90;;;;;;;16.49;92.18;97964.94;5029735;28;20544;-59
2021/08/15 04:09:08;;;;;;;9.82;6.55;;;;;;;17.13;88.85;97976.44;5028726;28;20033;-60
2021/08/15 04:11:34;;;;;;;8.57;5.68;;;;;;;17.14;90.81;97983.38;5027365;28;20456;-60
2021/08/15 04:13:59;;;;;;;12.35;6.88;;;;;;;16.28;92.78;97983.78;5030539;28;20475;-60
2021/08/15 04:16:25;;;;;;;9.90;6.57;;;;;;;16.66;90.87;97988.34;5025357;28;20053;-60
2021/08/15 04:18:50;;;;;;;12.07;7.55;;;;;;;16.26;91.83;97995.34;5031426;28;20431;-62
2021/08/15 04:21:16;;;;;;;11.88;7.35;;;;;;;16.21;91.42;97987.78;5029614;28;20044;-62
2021/08/15 04:23:41;;;;;;;10.50;6.55;;;;;;;16.23;92.63;97977.13;5032333;28;20029;-61
2021/08/15 04:26:06;;;;;;;12.73;7.15;;;;;;;16.47;90.20;97972.06;5028639;28;20033;-60
2021/08/15 04:28:31;;;;;;;12.02;6.80;;;;;;;16.60;90.21;97969.47;5028949;28;20602;-60
2021/08/15 04:30:57;;;;;;;8.50;6.20;;;;;;;16.64;90.22;97971.81;5030439;28;20415;-62
2021/08/15 04:33:24;;;;;;;10.50;6.93;;;;;;;16.51;90.96;97968.28;5030598;28;20095;-61
2021/08/15 04:35:51;;;;;;;9.50;6.60;;;;;;;16.87;89.35;97964.19;5026777;28;20029;-61
2021/08/15 04:38:17;;;;;;;14.40;7.07;;;;;;;16.88;88.14;97960.63;5030140;28;20025;-61
2021/08/15 04:40:42;;;;;;;12.57;6.90;;;;;;;16.77;88.64;97962.13;5030391;28;20053;-60
2021/08/15 04:43:08;;;;;;;11.45;6.60;;;;;;;16.95;87.94;97967.16;5028357;28;20037;-61
2021/08/15 04:45:35;;;;;;;9.27;6.07;;;;;;;16.87;88.16;97965.03;5030796;28;20033;-61
2021/08/15 04:48:03;;;;;;;10.82;6.50;;;;;;;17.28;86.40;97965.81;5029150;28;20032;-62
2021/08/15 04:50:28;;;;;;;15.75;7.22;;;;;;;17.10;85.79;97966.09;5029849;28;20547;-60
2021/08/15 04:52:53;;;;;;;11.10;6.68;;;;;;;17.09;86.77;97967.06;5028635;28;20024;-60
2021/08/15 04:55:19;;;;;;;10.63;6.45;;;;;;;17.33;85.56;97955.75;5030183;28;20577;-62
2021/08/15 04:57:44;;;;;;;8.27;5.63;;;;;;;17.38;85.16;97969.47;5028482;28;20096;-60
2021/08/15 05:00:10;;;;;;;10.00;6.40;;;;;;;17.40;84.90;97957.03;5029517;28;20048;-62
2021/08/15 05:02:36;;;;;;;10.48;6.63;;;;;;;17.70;83.62;97969.03;5028138;28;20108;-61
2021/08/15 05:05:01;;;;;;;11.15;6.38;;;;;;;17.23;85.75;97970.53;5029748;28;20086;-61
2021/08/15 05:07:27;;;;;;;9.48;6.32;;;;;;;17.27;85.60;97978.13;5028606;28;20065;-61
2021/08/15 05:09:52;;;;;;;12.18;6.50;;;;;;;17.26;85.76;97976.44;5029949;28;20078;-60
2021/08/15 05:12:17;;;;;;;9.40;5.97;;;;;;;17.70;83.84;97974.31;5030741;28;20037;-60
2021/08/15 05:14:43;;;;;;;9.18;5.10;;;;;;;18.35;81.39;97980.28;5030493;28;20695;-61
2021/08/15 05:17:08;;;;;;;12.32;6.38;;;;;;;18.02;82.13;97984.41;5028856;28;20475;-60
2021/08/15 05:19:33;;;;;;;8.63;5.60;;;;;;;18.23;81.76;97982.84;5029672;28;20715;-62
2021/08/15 05:21:59;;;;;;;9.82;6.20;;;;;;;18.24;81.26;97978.41;5030027;28;20045;-60
2021/08/15 05:24:24;;;;;;;13.23;5.97;;;;;;;18.24;79.91;97981.88;5027393;28;20445;-61
2021/08/15 05:26:49;;;;;;;7.38;5.00;;;;;;;18.83;79.08;97986.38;5026243;28;20061;-60
2021/08/15 05:29:15;;;;;;;12.57;6.35;;;;;;;17.94;81.81;97981.44;5027201;28;20430;-61
2021/08/15 05:31:40;;;;;;;8.43;5.72;;;;;;;18.61;79.63;97981.81;5029172;28;20041;-61
2021/08/15 05:34:05;;;;;;;8.95;5.43;;;;;;;19.15;77.62;97984.91;5028645;28;20036;-60
2021/08/15 05:36:31;;;;;;;10.75;6.57;;;;;;;18.48;78.97;97988.97;5029199;28;20118;-62
2021/08/15 05:38:56;;;;;;;9.98;6.18;;;;;;;18.46;80.13;97989.09;5026960;28;20018;-62
2021/08/15 05:41:21;;;;;;;9.93;6.15;;;;;;;18.86;79.67;97986.16;5030831;28;20041;-62
2021/08/15 05:43:47;;;;;;;7.95;5.88;;;;;;;19.87;75.38;97981.13;5029109;28;20025;-61
2021/08/15 05:46:12;;;;;;;8.05;6.05;;;;;;;19.48;75.79;97980.63;5029312;28;20088;-61
2021/08/15 05:48:37;;;;;;;9.27;5.68;;;;;;;19.70;75.82;97977.97;5030397;28;20029;-60
2021/08/15 05:51:05;;;;;;;9.93;5.85;;;;;;;19.17;77.54;97977.69;5027868;28;20044;-60
2021/08/15 05:53:30;;;;;;;11.27;6.25;;;;;;;20.16;74.24;97977.00;5027083;28;20036;-60
2021/08/15 05:55:56;;;;;;;9.07;5.63;;;;;;;21.59;69.36;97979.34;5028208;28;20033;-60
2021/08/15 05:58:21;;;;;;;9.57;5.72;;;;;;;23.34;63.86;97974.25;5027635;28;20083;-61
2021/08/15 06:00:49;;;;;;;7.43;5.40;;;;;;;25.34;57.19;97972.56;5028179;28;20158;-61
2021/08/15 06:03:14;;;;;;;8.32;5.60;;;;;;;26.11;54.64;97969.97;5028829;28;20108;-61
2021/08/15 06:05:40;;;;;;;9.27;5.32;;;;;;;28.63;48.18;97971.59;5026848;28;20039;-61
2021/08/15 06:08:06;;;;;;;6.75;5.10;;;;;;;28.50;48.49;97968.63;5025490;28;20034;-62
2021/08/15 06:10:31;;;;;;;7.65;5.28;;;;;;;28.23;47.58;97973.50;5024860;28;20088;-62
2021/08/15 06:12:57;;;;;;;7.00;4.90;;;;;;;30.48;44.22;97973.72;5025424;28;20578;-60
2021/08/15 06:15:22;;;;;;;11.52;5.30;;;;;;;28.98;45.47;97971.97;5026284;28;20036;-62
2021/08/15 06:17:48;;;;;;;6.85;5.00;;;;;;;30.17;44.38;97972.09;5027974;28;20032;-61
2021/08/15 06:20:13;;;;;;;11.57;4.28;;;;;;;31.51;41.67;97976.09;5027252;28;20629;-60
2021/08/15 06:22:41;;;;;;;7.40;5.13;;;;;;;31.12;41.06;97972.06;5028863;28;20029;-62
2021/08/15 06:25:08;;;;;;;6.05;4.70;;;;;;;28.45;47.26;97962.97;5026409;28;20399;-61
2021/08/15 06:27:34;;;;;;;9.15;4.80;;;;;;;30.78;42.16;97967.38;5026819;28;20123;-62
2021/08/15 06:29:59;;;;;;;7.65;5.00;;;;;;;30.61;42.60;97961.41;5028796;28;20116;-61
2021/08/15 06:32:24;;;;;;;8.07;4.78;;;;;;;31.91;40.17;97962.84;5029071;28;20156;-63
2021/08/15 06:34:50;;;;;;;8.63;4.50;;;;;;;32.10;39.86;97958.56;5029546;28;20026;-62
2021/08/15 06:37:15;;;;;;;5.63;4.50;;;;;;;32.99;38.64;97954.00;5027630;28;20102;-61
2021/08/15 06:39:41;;;;;;;6.45;4.72;;;;;;;33.12;37.68;97951.34;5026996;28;20033;-62
2021/08/15 06:42:06;;;;;;;7.78;4.50;;;;;;;34.10;36.80;97950.47;5031549;28;20037;-62
2021/08/15 06:44:31;;;;;;;8.35;4.40;;;;;;;33.96;36.64;97952.41;5032356;28;20060;-61
2021/08/15 06:46:56;;;;;;;9.73;4.50;;;;;;;33.49;36.26;97953.53;5029622;28;20065;-62
2021/08/15 06:49:22;;;;;;;8.52;4.78;;;;;;;35.76;33.43;97955.72;5032145;28;20514;-63
2021/08/15 06:51:48;;;;;;;6.77;4.37;;;;;;;37.56;31.98;97944.09;5030707;28;20748;-62
2021/08/15 06:54:13;;;;;;;7.22;4.65;;;;;;;36.60;33.16;97942.31;5032867;28;20686;-63
2021/08/15 06:56:41;;;;;;;7.10;4.80;;;;;;;35.65;34.04;97946.41;5032476;28;20753;-61
2021/08/15 06:59:06;;;;;;;8.57;4.38;;;;;;;36.07;32.94;97943.03;5032465;28;20264;-61
2021/08/15 07:01:32;;;;;;;5.43;4.37;;;;;;;36.53;33.35;97940.78;5032906;28;20434;-61
2021/08/15 07:03:57;;;;;;;8.13;4.40;;;;;;;37.38;32.40;97943.16;5031479;28;20279;-61
2021/08/15 07:06:22;;;;;;;7.75;4.50;;;;;;;35.77;33.99;97942.97;5030590;28;20566;-61
2021/08/15 07:08:48;;;;;;;6.90;4.40;;;;;;;37.50;31.50;97945.03;5029557;28;20140;-62
2021/08/15 07:11:13;;;;;;;5.80;4.60;;;;;;;35.84;34.31;97943.72;5032078;28;20298;-63
2021/08/15 07:13:41;;;;;;;6.85;4.93;;;;;;;34.79;35.44;97952.63;5030179;28;20311;-62
2021/08/15 07:16:07;;;;;;;5.95;4.40;;;;;;;35.81;34.68;97942.31;5031077;28;20088;-61
2021/08/15 07:18:32;;;;;;;6.13;4.80;;;;;;;35.63;34.86;97948.53;5031714;28;20033;-62
2021/08/15 07:21:00;;;;;;;6.15;4.60;;;;;;;38.06;31.06;97935.34;5032047;28;20310;-62
2021/08/15 07:23:25;;;;;;;6.43;4.45;;;;;;;37.87;31.76;97945.59;5030509;28;20036;-62
2021/08/15 07:25:53;;;;;;;7.45;4.80;;;;;;;38.85;30.00;97945.56;5029626;28;20037;-63
2021/08/15 07:28:18;;;;;;;7.10;5.15;;;;;;;37.71;31.17;97941.72;5030015;28;20033;-61
2021/08/15 07:30:43;;;;;;;8.30;4.93;;;;;;;36.83;31.91;97933.41;5031301;28;20457;-62
2021/08/15 07:33:09;;;;;;;7.45;4.85;;;;;;;37.74;30.86;97938.53;5028624;28;20677;-61
2021/08/15 07:35:36;;;;;;;7.20;5.03;;;;;;;39.70;28.30;97935.41;5030632;28;20584;-60
2021/08/15 07:38:02;;;;;;;6.28;4.78;;;;;;;38.68;30.32;97928.38;5029342;28;20307;-62
2021/08/15 07:40:28;;;;;;;7.82;5.15;;;;;;;36.87;32.81;97936.47;5030062;28;20082;-61
2021/08/15 07:42:54;;;;;;;10.25;4.30;;;;;;;39.56;28.53;97934.13;5028769;28;20101;-60
2021/08/15 07:45:21;;;;;;;8.65;4.78;;;;;;;40.36;27.66;97931.03;5033781;28;20114;-61
2021/08/15 07:47:47;;;;;;;9.05;5.20;;;;;;;37.38;31.04;97924.13;5029215;28;20032;-62
2021/08/15 07:50:13;;;;;;;6.60;5.05;;;;;;;37.88;30.63;97925.47;5030927;28;20048;-61
2021/08/15 07:52:38;;;;;;;6.93;4.97;;;;;;;38.78;30.04;97923.09;5027896;28;20569;-61
2021/08/15 07:55:05;;;;;;;8.27;4.57;;;;;;;37.53;31.34;97928.25;5030515;28;20067;-61
2021/08/15 07:57:31;;;;;;;6.15;4.60;;;;;;;39.90;28.55;97923.94;5029150;28;20053;-60
2021/08/15 07:59:57;;;;;;;7.35;4.45;;;;;;;37.61;30.03;97925.16;5029867;28;20078;-60
2021/08/15 08:02:22;;;;;;;7.40;4.90;;;;;;;36.12;32.29;97918.75;5028746;28;20672;-62
2021/08/15 08:04:50;;;;;;;7.13;4.75;;;;;;;37.26;29.82;97919.75;5029796;28;20041;-61
2021/08/15 08:07:18;;;;;;;9.00;5.05;;;;;;;37.60;30.25;97918.06;5029106;28;20032;-60
2021/08/15 08:09:44;;;;;;;7.68;4.63;;;;;;;39.17;28.92;97915.03;5029665;28;20031;-60
2021/08/15 08:12:09;;;;;;;8.13;4.70;;;;;;;39.21;29.23;97910.72;5029075;28;20033;-61
2021/08/15 08:14:35;;;;;;;6.50;4.60;;;;;;;37.95;30.39;97909.00;5031202;28;20069;-61
2021/08/15 08:17:00;;;;;;;6.13;4.40;;;;;;;39.81;28.13;97913.69;5028886;28;20095;-60
2021/08/15 08:19:25;;;;;;;6.82;4.50;;;;;;;40.11;27.78;97912.41;5028392;28;20268;-62
2021/08/15 08:21:51;;;;;;;8.20;4.73;;;;;;;38.34;30.56;97907.34;5028902;28;20649;-60
2021/08/15 08:24:16;;;;;;;6.67;4.70;;;;;;;39.89;28.05;97910.53;5032759;28;20275;-61
2021/08/15 08:26:41;;;;;;;6.83;4.63;;;;;;;39.24;28.86;97910.19;5027203;28;20276;-60
2021/08/15 08:29:07;;;;;;;11.25;4.70;;;;;;;37.83;30.29;97897.31;5032685;28;20287;-62
2021/08/15 08:31:32;;;;;;;7.07;4.70;;;;;;;38.09;29.27;97899.50;5028628;28;20039;-60
2021/08/15 08:33:57;;;;;;;7.97;4.67;;;;;;;39.07;27.90;97902.03;5030506;28;20256;-60
2021/08/15 08:36:23;;;;;;;7.83;4.53;;;;;;;39.55;27.09;97899.72;5028859;28;20273;-60
2021/08/15 08:38:48;;;;;;;8.23;4.50;;;;;;;39.21;27.63;97885.31;5028198;28;20260;-62
2021/08/15 08:41:15;;;;;;;9.20;4.40;;;;;;;38.05;28.57;97890.16;5028700;28;20048;-61
2021/08/15 08:43:41;;;;;;;7.32;4.43;;;;;;;39.06;26.98;97891.38;5030343;28;20033;-62
2021/08/15 08:46:09;;;;;;;9.05;4.30;;;;;;;37.23;29.06;97880.28;5030778;28;20051;-60
2021/08/15 08:48:34;;;;;;;6.97;3.95;;;;;;;37.14;28.84;97884.38;5028124;28;20044;-60
2021/08/15 08:50:59;;;;;;;9.23;4.00;;;;;;;39.15;26.42;97881.69;5028011;28;20453;-60
2021/08/15 08:53:26;;;;;;;6.78;3.65;;;;;;;37.82;26.88;97872.00;5031051;28;20954;-60
2021/08/15 08:55:51;;;;;;;6.82;3.70;;;;;;;39.05;25.72;97868.75;5029391;28;20064;-60
2021/08/15 08:58:16;;;;;;;5.13;3.92;;;;;;;39.08;26.49;97861.97;5030228;28;20192;-62
2021/08/15 09:00:43;;;;;;;7.30;4.15;;;;;;;38.57;27.31;97861.97;5027162;28;20037;-61
2021/08/15 09:03:08;;;;;;;7.22;3.88;;;;;;;40.39;26.00;97864.94;5029254;28;20036;-60
2021/08/15 09:05:35;;;;;;;7.82;4.07;;;;;;;39.15;27.37;97868.03;5028562;28;20033;-60
2021/08/15 09:08:01;;;;;;;14.35;4.32;;;;;;;40.19;25.23;97868.28;5028417;28;20030;-63
2021/08/15 09:10:33;;;;;;;6.78;4.10;;;;;;;39.08;26.78;97868.25;5027909;28;20037;-60
2021/08/15 09:13:05;;;;;;;7.68;4.07;;;;;;;40.42;25.60;97859.78;5029235;28;20040;-62
2021/08/15 09:15:31;;;;;;;10.68;4.30;;;;;;;39.16;26.94;97864.25;5029902;28;20507;-60
2021/08/15 09:17:56;;;;;;;8.32;4.00;;;;;;;40.17;26.52;97852.13;5027874;28;20036;-61
2021/08/15 09:20:23;;;;;;;7.22;4.18;;;;;;;40.66;25.37;97852.03;5029574;28;20047;-61
2021/08/15 09:22:48;;;;;;;8.73;4.15;;;;;;;38.61;29.75;97854.94;5029754;28;20604;-60
2021/08/15 09:25:20;;;;;;;8.77;4.20;;;;;;;38.77;28.49;97853.31;5031257;28;20755;-63
2021/08/15 09:27:56;;;;;;;6.32;4.50;;;;;;;39.07;27.84;97850.22;5028738;28;20025;-61
2021/08/15 09:30:23;;;;;;;6.97;4.25;;;;;;;39.07;28.39;97852.13;5027747;28;20037;-61
2021/08/15 09:32:59;;;;;;;6.82;4.45;;;;;;;37.59;29.16;97845.69;5027150;28;20057;-60
2021/08/15 09:35:34;;;;;;;4.93;3.85;;;;;;;39.88;28.16;97848.78;5027658;28;20041;-61
2021/08/15 09:38:11;;;;;;;6.75;4.32;;;;;;;37.83;29.17;97840.16;5028963;28;20016;-60
2021/08/15 09:40:38;;;;;;;9.88;4.43;;;;;;;38.56;28.51;97849.41;5029229;28;20036;-60
2021/08/15 09:43:21;;;;;;;10.32;4.72;;;;;;;37.34;30.20;97838.63;5026259;28;20108;-60
2021/08/15 09:45:49;;;;;;;5.88;4.25;;;;;;;37.79;30.01;97839.81;5029760;28;20498;-62
2021/08/15 09:48:44;;;;;;;7.32;4.43;;;;;;;38.86;28.89;97834.59;5027801;28;20040;-62
2021/08/15 09:51:11;;;;;;;6.95;4.30;;;;;;;37.55;29.58;97826.28;5024825;28;20087;-60
2021/08/15 09:53:42;;;;;;;6.65;4.90;;;;;;;38.77;28.63;97834.22;5026335;28;20029;-60
2021/08/15 09:56:08;;;;;;;7.50;4.53;;;;;;;38.44;29.19;97830.41;5027766;28;20091;-60
2021/08/15 09:58:33;;;;;;;7.13;4.40;;;;;;;39.35;28.98;97839.41;5028999;28;20025;-61
2021/08/15 10:01:02;;;;;;;6.60;4.63;;;;;;;36.70;30.64;97827.66;5027905;28;20048;-61
2021/08/15 10:03:28;;;;;;;8.02;4.38;;;;;;;37.42;30.78;97821.94;5027548;28;20025;-61
2021/08/15 10:05:55;;;;;;;5.97;4.85;;;;;;;38.17;30.92;97820.13;5029148;28;20041;-63
2021/08/15 10:08:21;;;;;;;7.95;4.50;;;;;;;38.41;30.62;97816.44;5025608;28;20737;-60
2021/08/15 10:10:47;;;;;;;8.25;4.90;;;;;;;36.93;31.17;97815.97;5026606;28;20056;-61
2021/08/15 10:13:13;;;;;;;9.07;4.40;;;;;;;38.20;30.16;97813.38;5043165;28;20017;-62
2021/08/15 10:15:40;;;;;;;8.10;4.40;;;;;;;37.21;31.13;97807.09;5026538;28;20091;-59
2021/08/15 10:18:10;;;;;;;5.57;4.70;;;;;;;37.22;30.58;97808.75;5026098;28;20033;-60
2021/08/15 10:20:36;;;;;;;;;;;;;;;36.52;31.31;97809.53;5025424;28;20620;-62
2021/08/15 10:23:10;;;;;;;8.77;4.50;;;;;;;37.92;29.34;97803.31;5028751;28;20862;-62
2021/08/15 10:25:38;;;;;;;10.00;4.88;;;;;;;38.05;30.26;97805.75;5027805;28;20040;-62
2021/08/15 10:28:05;;;;;;;8.68;4.68;;;;;;;36.81;31.37;97802.38;5026818;28;20635;-61
2021/08/15 10:30:30;;;;;;;7.43;4.40;;;;;;;38.37;29.17;97805.22;5025698;28;20044;-60
2021/08/15 10:32:55;;;;;;;6.90;4.63;;;;;;;37.40;31.06;97796.84;5026730;28;20026;-60
2021/08/15 10:36:09;;;;;;;11.47;4.77;;;;;;;36.15;32.40;97793.41;5025651;28;20032;-60
2021/08/15 10:38:34;;;;;;;8.90;4.80;;;;;;;37.39;30.99;97794.41;4989595;28;20261;-60
2021/08/15 10:41:01;;;;;;;10.73;4.80;;;;;;;36.94;32.00;97795.88;5027840;28;20036;-60
2021/08/15 10:43:27;;;;;;;9.98;4.50;;;;;;;37.41;32.17;97792.25;5025790;28;20091;-60
2021/08/15 10:46:15;;;;;;;7.67;5.17;;;;;;;37.70;31.47;97787.69;5029008;28;20061;-60
2021/08/15 10:49:09;;;;;;;10.02;4.88;;;;;;;36.48;31.85;97781.19;5026244;28;20284;-62
2021/08/15 10:51:42;;;;;;;16.55;5.13;;;;;;;37.65;31.16;97779.44;5026797;28;20041;-59
2021/08/15 10:54:28;;;;;;;10.90;5.13;;;;;;;37.13;31.95;97776.69;5026409;28;20034;-59
2021/08/15 10:56:54;;;;;;;6.75;4.90;;;;;;;37.13;31.86;97768.53;5027715;28;20038;-60
2021/08/15 10:59:33;;;;;;;9.18;5.40;;;;;;;37.26;32.61;97765.59;5029935;28;20501;-61
2021/08/15 11:02:07;;;;;;;9.25;5.15;;;;;;;35.89;33.25;97767.50;5025110;28;20037;-60
2021/08/15 11:04:33;;;;;;;8.95;5.25;;;;;;;36.76;33.26;97756.09;5028031;28;20049;-61
2021/08/15 11:06:58;;;;;;;7.38;5.13;;;;;;;36.09;33.10;97761.75;5026515;28;20638;-61
2021/08/15 11:09:24;;;;;;;7.05;5.13;;;;;;;36.36;32.99;97755.91;5027823;28;20556;-62
2021/08/15 11:12:10;;;;;;;10.70;5.57;;;;;;;36.40;32.98;97752.50;5026210;28;20255;-61
2021/08/15 11:14:36;;;;;;;10.80;5.88;;;;;;;36.22;33.21;97748.00;5021627;28;20049;-62
2021/08/15 11:17:11;;;;;;;13.80;5.95;;;;;;;37.64;32.13;97745.13;5038051;28;20120;-62
2021/08/15 11:19:37;;;;;;;7.40;5.57;;;;;;;36.87;32.48;97746.25;5023574;28;20025;-62
2021/08/15 11:22:32;;;;;;;9.50;5.57;;;;;;;36.18;33.22;97735.97;5020081;28;20056;-61
2021/08/15 11:25:01;;;;;;;10.77;6.05;;;;;;;36.31;34.24;97734.91;5013825;28;20093;-64
2021/08/15 11:27:37;;;;;;;8.27;5.70;;;;;;;37.26;33.42;97732.97;5026333;28;20037;-62